Time;durP1;ratioP1;P1;durP2;ratioP2;P2;SDS_P1;SDS_P2;PMS_P1;PMS_P2;Temp;Humidity;BMP_temperature;BMP_pressure;BME280_temperature;BME280_humidity;BME280_pressure;Samples;Min_cycle;Max_cycle;Signal;HPM_P1;HPM_P2
2022/10/02 00:00:16;;;;;;;29.50;6.57;;;;;;;11.77;100.00;101255.47;5041389;28;20044;-68
2022/10/02 00:02:52;;;;;;;30.38;6.28;;;;;;;11.77;100.00;101255.47;5042958;28;20071;-68
2022/10/02 00:05:27;;;;;;;29.00;6.50;;;;;;;11.73;100.00;101264.25;5040949;28;20033;-68
2022/10/02 00:07:57;;;;;;;28.30;5.95;;;;;;;11.78;100.00;101262.53;5040929;28;20483;-68
2022/10/02 00:10:28;;;;;;;27.83;5.97;;;;;;;11.80;100.00;101270.50;5044650;28;20021;-67
2022/10/02 00:12:59;;;;;;;27.55;6.13;;;;;;;11.81;100.00;101259.91;5041582;28;20109;-67
2022/10/02 00:15:31;;;;;;;28.50;6.70;;;;;;;11.84;100.00;101259.91;5042699;28;20520;-67
2022/10/02 00:18:01;;;;;;;29.20;6.60;;;;;;;11.86;100.00;101273.19;5041340;28;20033;-68
2022/10/02 00:20:37;;;;;;;28.10;6.10;;;;;;;11.88;100.00;101270.53;5042760;28;20017;-70
2022/10/02 00:23:32;;;;;;;30.55;6.57;;;;;;;11.86;100.00;101279.34;5043311;28;20380;-69
2022/10/02 00:26:04;;;;;;;26.75;6.28;;;;;;;11.84;100.00;101281.13;5042634;28;20499;-68
2022/10/02 00:28:40;;;;;;;29.48;5.97;;;;;;;11.84;100.00;101275.81;5041342;28;20025;-70
2022/10/02 00:31:14;;;;;;;30.02;6.30;;;;;;;11.85;100.00;101282.91;5043772;28;20116;-67
2022/10/02 00:33:59;;;;;;;30.75;6.60;;;;;;;11.85;100.00;101290.84;5042644;28;20063;-68
2022/10/02 00:36:47;;;;;;;28.15;5.82;;;;;;;11.79;100.00;101285.47;5040601;28;20043;-69
2022/10/02 00:39:21;;;;;;;28.55;6.32;;;;;;;11.84;100.00;101289.06;5042259;28;20097;-70
2022/10/02 00:42:15;;;;;;;31.25;6.72;;;;;;;11.78;100.00;101294.31;5041731;28;20029;-69
2022/10/02 00:45:18;;;;;;;32.17;6.75;;;;;;;11.75;100.00;101294.31;5041315;28;20101;-69
2022/10/02 00:48:05;;;;;;;30.50;6.00;;;;;;;11.76;100.00;101289.88;5041292;28;20032;-69
2022/10/02 00:50:57;;;;;;;30.88;6.30;;;;;;;11.84;100.00;101291.72;5041649;28;20040;-68
2022/10/02 00:53:39;;;;;;;26.02;5.88;;;;;;;11.79;100.00;101290.78;5042253;28;20108;-69
2022/10/02 00:56:29;;;;;;;27.23;6.30;;;;;;;11.75;100.00;101290.75;5041077;28;20449;-67
2022/10/02 00:59:03;;;;;;;29.67;6.43;;;;;;;11.79;100.00;101282.84;5042692;28;20053;-66
2022/10/02 01:01:41;;;;;;;34.17;6.78;;;;;;;11.80;100.00;101294.34;5045134;28;20105;-67
2022/10/02 01:04:19;;;;;;;30.80;6.13;;;;;;;11.79;100.00;101290.78;5044720;28;20026;-66
2022/10/02 01:06:44;;;;;;;31.13;6.32;;;;;;;11.81;100.00;101296.09;5044934;28;20040;-66
2022/10/02 01:09:10;;;;;;;30.85;6.45;;;;;;;11.82;100.00;101293.47;5047984;28;20021;-69
2022/10/02 01:11:37;;;;;;;29.38;6.10;;;;;;;11.79;100.00;101293.44;5044879;28;20021;-68
2022/10/02 01:14:03;;;;;;;32.17;6.43;;;;;;;11.85;100.00;101297.88;5047208;28;20071;-68
2022/10/02 01:16:30;;;;;;;31.60;6.82;;;;;;;11.86;100.00;101291.72;5043937;28;20440;-68
2022/10/02 01:18:55;;;;;;;29.50;6.20;;;;;;;11.94;100.00;101299.75;5046614;28;20029;-66
2022/10/02 01:21:28;;;;;;;33.38;6.65;;;;;;;11.93;100.00;101292.66;5046353;28;20112;-68
2022/10/02 01:24:08;;;;;;;27.38;6.05;;;;;;;11.95;100.00;101293.56;5045952;28;20036;-67
2022/10/02 01:26:34;;;;;;;31.10;6.57;;;;;;;12.00;100.00;101286.56;5044779;28;20026;-68
2022/10/02 01:28:59;;;;;;;33.17;6.63;;;;;;;12.00;100.00;101278.59;5047003;28;20048;-68
2022/10/02 01:31:24;;;;;;;32.50;6.65;;;;;;;12.06;100.00;101280.38;5045645;28;20033;-68
2022/10/02 01:33:51;;;;;;;31.35;6.40;;;;;;;12.12;100.00;101276.00;5045512;28;20026;-68
2022/10/02 01:36:16;;;;;;;33.38;6.25;;;;;;;12.08;100.00;101279.50;5047100;28;20054;-70
2022/10/02 01:38:43;;;;;;;31.33;6.25;;;;;;;12.12;100.00;101286.59;5043704;28;20400;-70
2022/10/02 01:41:10;;;;;;;36.35;6.85;;;;;;;12.08;100.00;101292.75;5047624;28;20074;-68
2022/10/02 01:43:41;;;;;;;31.90;6.47;;;;;;;12.06;100.00;101286.56;5043988;28;20028;-70
2022/10/02 01:46:28;;;;;;;30.35;5.97;;;;;;;12.07;100.00;101292.75;5047712;28;20025;-70
2022/10/02 01:49:02;;;;;;;32.28;6.50;;;;;;;12.05;100.00;101295.38;5045583;28;20348;-69
2022/10/02 01:52:04;;;;;;;34.65;6.80;;;;;;;12.06;100.00;101297.16;5044980;28;20090;-69
2022/10/02 01:54:38;;;;;;;35.92;6.90;;;;;;;12.10;100.00;101293.66;5046468;28;20044;-69
2022/10/02 01:57:04;;;;;;;35.00;6.90;;;;;;;12.07;100.00;101293.63;5043870;28;20025;-69
2022/10/02 01:59:51;;;;;;;33.58;6.35;;;;;;;12.04;100.00;101288.31;5046410;28;20037;-68
2022/10/02 02:02:48;;;;;;;32.05;6.00;;;;;;;12.05;100.00;101292.75;5044554;28;20033;-69
2022/10/02 02:06:01;;;;;;;36.88;6.88;;;;;;;12.10;100.00;101298.06;5043705;28;20025;-66
2022/10/02 02:08:41;;;;;;;34.78;6.60;;;;;;;12.13;100.00;101304.28;5041422;28;20458;-69
2022/10/02 02:11:10;;;;;;;32.00;6.30;;;;;;;12.21;100.00;101296.34;5044376;28;20041;-67
2022/10/02 02:13:50;;;;;;;34.03;6.25;;;;;;;12.21;100.00;101297.22;5041233;28;20614;-69
2022/10/02 02:16:20;;;;;;;32.78;6.95;;;;;;;12.25;100.00;101294.63;5027945;28;20029;-69
2022/10/02 02:18:56;;;;;;;34.38;7.18;;;;;;;12.24;100.00;101287.53;5043953;28;20084;-68
2022/10/02 02:21:28;;;;;;;31.00;6.35;;;;;;;12.22;100.00;101298.13;5042541;28;20253;-68
2022/10/02 02:23:57;;;;;;;33.22;6.63;;;;;;;12.22;100.00;101300.78;5042886;28;20033;-69
2022/10/02 02:26:24;;;;;;;33.63;6.75;;;;;;;12.23;100.00;101306.97;5042381;28;20052;-68
2022/10/02 02:28:55;;;;;;;31.95;6.82;;;;;;;12.26;100.00;101301.66;5043568;28;20033;-64
2022/10/02 02:31:26;;;;;;;32.38;6.88;;;;;;;12.31;100.00;101302.59;5042271;28;20120;-69
2022/10/02 02:34:03;;;;;;;29.60;6.68;;;;;;;12.31;100.00;101298.16;5043062;28;20083;-66
2022/10/02 02:36:37;;;;;;;29.52;6.32;;;;;;;12.37;100.00;101295.53;5043098;28;20057;-67
2022/10/02 02:39:10;;;;;;;28.38;6.28;;;;;;;12.36;100.00;101308.78;5041105;28;20053;-68
2022/10/02 02:41:45;;;;;;;29.95;6.70;;;;;;;12.31;100.00;101300.81;5044179;28;20059;-70
2022/10/02 02:44:17;;;;;;;31.50;7.15;;;;;;;12.27;100.00;101299.03;5044488;28;20052;-69
2022/10/02 02:47:03;;;;;;;29.73;6.40;;;;;;;12.21;100.00;101294.59;5042642;28;20087;-69
2022/10/02 02:49:49;;;;;;;25.30;5.85;;;;;;;12.09;100.00;101302.50;5044204;28;20031;-69
2022/10/02 02:52:24;;;;;;;23.95;5.68;;;;;;;11.98;100.00;101304.19;5042628;28;20107;-69
2022/10/02 02:54:55;;;;;;;24.73;5.18;;;;;;;11.88;100.00;101302.31;5045038;28;20357;-69
2022/10/02 02:57:28;;;;;;;24.63;5.10;;;;;;;11.80;100.00;101311.09;5043800;28;20417;-69
2022/10/02 02:59:57;;;;;;;22.10;4.85;;;;;;;11.71;100.00;101324.28;5044482;28;20464;-69
2022/10/02 03:02:22;;;;;;;22.50;4.70;;;;;;;11.66;100.00;101316.31;5043851;28;20032;-69
2022/10/02 03:04:48;;;;;;;23.45;4.65;;;;;;;11.59;100.00;101322.44;5045072;28;20021;-70
2022/10/02 03:07:15;;;;;;;22.65;4.43;;;;;;;11.44;100.00;101312.59;5042673;28;20029;-69
2022/10/02 03:09:48;;;;;;;20.98;4.50;;;;;;;11.37;100.00;101313.41;5045686;28;20029;-70
2022/10/02 03:12:35;;;;;;;20.60;4.13;;;;;;;11.27;100.00;101314.22;5042294;28;20083;-69
2022/10/02 03:15:25;;;;;;;22.67;4.20;;;;;;;11.22;100.00;101314.19;5043226;28;20435;-69
2022/10/02 03:17:51;;;;;;;19.90;4.00;;;;;;;11.20;100.00;101313.28;5043495;28;20108;-70
2022/10/02 03:20:41;;;;;;;19.95;3.97;;;;;;;11.13;100.00;101317.63;5044873;28;20100;-70
2022/10/02 03:23:24;;;;;;;20.45;4.10;;;;;;;11.09;100.00;101309.66;5041957;28;20168;-69
2022/10/02 03:25:49;;;;;;;;;;;;;;;11.03;100.00;101315.75;5043378;28;20091;-69
2022/10/02 03:28:20;;;;;;;17.93;3.60;;;;;;;11.08;100.00;101313.16;5045319;28;20434;-70
2022/10/02 03:30:46;;;;;;;18.88;4.13;;;;;;;11.09;100.00;101307.00;5042366;28;20282;-70
2022/10/02 03:33:14;;;;;;;21.33;3.80;;;;;;;11.10;100.00;101307.00;5045427;28;20033;-70
2022/10/02 03:35:41;;;;;;;19.67;4.20;;;;;;;11.06;100.00;101313.13;5042125;28;20029;-71
2022/10/02 03:38:11;;;;;;;20.70;4.57;;;;;;;11.08;100.00;101319.34;5044843;28;20025;-70
2022/10/02 03:40:36;;;;;;;19.08;4.82;;;;;;;11.17;100.00;101313.25;5041913;28;20041;-70
2022/10/02 03:43:03;;;;;;;21.25;4.97;;;;;;;11.20;100.00;101325.59;5044531;28;20025;-70
2022/10/02 03:45:29;;;;;;;19.25;4.65;;;;;;;11.27;100.00;101349.53;5042731;28;20476;-70
2022/10/02 03:47:54;;;;;;;23.75;5.95;;;;;;;11.33;100.00;101325.75;5043351;28;20044;-72
2022/10/02 03:50:20;;;;;;;20.35;5.80;;;;;;;11.37;100.00;101336.38;5044123;28;20033;-71
2022/10/02 03:52:49;;;;;;;21.83;6.60;;;;;;;11.33;100.00;101340.75;5041955;28;20032;-71
2022/10/02 03:55:17;;;;;;;25.65;7.60;;;;;;;11.30;100.00;101341.59;5044836;28;20033;-72
2022/10/02 03:57:45;;;;;;;24.65;7.50;;;;;;;11.31;100.00;101337.19;5041944;28;20103;-71
2022/10/02 04:00:18;;;;;;;24.88;8.32;;;;;;;11.26;100.00;101329.22;5041586;28;20413;-71
2022/10/02 04:03:02;;;;;;;25.23;9.15;;;;;;;11.21;100.00;101330.03;5041325;28;20072;-71
2022/10/02 04:05:35;;;;;;;26.88;9.98;;;;;;;11.20;100.00;101323.88;5042941;28;20033;-71
2022/10/02 04:08:17;;;;;;;29.25;11.20;;;;;;;11.21;100.00;101335.34;5043560;28;20067;-67
2022/10/02 04:11:14;;;;;;;29.17;12.95;;;;;;;11.22;100.00;101331.81;5041205;28;20112;-68
2022/10/02 04:14:02;;;;;;;33.47;14.35;;;;;;;11.30;100.00;101328.38;5041153;28;20029;-69
2022/10/02 04:16:46;;;;;;;32.45;15.60;;;;;;;11.32;100.00;101325.75;5043360;28;20029;-68
2022/10/02 04:19:35;;;;;;;32.90;16.52;;;;;;;11.33;100.00;101335.47;5040917;28;20033;-67
2022/10/02 04:22:18;;;;;;;34.28;16.90;;;;;;;11.36;100.00;101332.84;5043584;28;20421;-69
2022/10/02 04:25:04;;;;;;;32.97;17.33;;;;;;;11.38;100.00;101330.19;5041002;28;20040;-70
2022/10/02 04:27:37;;;;;;;34.83;18.15;;;;;;;11.42;100.00;101332.88;5041967;28;20025;-67
2022/10/02 04:30:12;;;;;;;33.40;16.88;;;;;;;11.45;100.00;101327.63;5043464;28;20375;-68
2022/10/02 04:32:38;;;;;;;34.10;16.55;;;;;;;11.46;100.00;101329.41;5041133;28;20037;-68
2022/10/02 04:35:25;;;;;;;33.47;17.15;;;;;;;11.47;100.00;101332.91;5043603;28;20025;-68
2022/10/02 04:38:29;;;;;;;34.33;17.45;;;;;;;11.48;100.00;101329.41;5041881;28;20518;-67
2022/10/02 04:41:11;;;;;;;36.38;18.80;;;;;;;11.55;100.00;101336.53;5022254;28;20054;-68
2022/10/02 04:43:55;;;;;;;38.88;18.42;;;;;;;11.54;100.00;101350.63;5019126;28;20084;-68
2022/10/02 04:46:54;;;;;;;38.50;19.92;;;;;;;11.59;100.00;101348.00;5022216;28;20053;-65
2022/10/02 04:49:36;;;;;;;41.60;22.35;;;;;;;11.68;100.00;101354.28;5022152;28;20488;-69
2022/10/02 04:52:29;;;;;;;43.13;23.33;;;;;;;11.70;100.00;101356.94;5019804;28;20481;-69
2022/10/02 04:55:30;;;;;;;41.40;22.95;;;;;;;11.73;100.00;101356.97;5022193;28;20040;-69
2022/10/02 04:58:20;;;;;;;44.47;23.52;;;;;;;11.78;100.00;101364.94;5010555;28;20117;-68
2022/10/02 05:01:19;;;;;;;50.67;27.00;;;;;;;11.84;100.00;101371.19;5019334;28;20398;-69
2022/10/02 05:04:09;;;;;;;48.90;26.63;;;;;;;11.89;100.00;101367.69;5018865;28;20029;-68
2022/10/02 05:06:50;;;;;;;55.28;28.80;;;;;;;11.94;100.00;101366.88;5021508;28;20033;-69
2022/10/02 05:09:30;;;;;;;48.30;28.02;;;;;;;11.96;100.00;101365.13;5022243;28;20063;-68
2022/10/02 05:12:17;;;;;;;50.65;28.67;;;;;;;11.98;100.00;101370.41;5020589;28;20156;-69
2022/10/02 05:14:58;;;;;;;49.08;24.70;;;;;;;12.02;100.00;101362.50;5022477;28;20037;-68
2022/10/02 05:17:34;;;;;;;51.72;26.40;;;;;;;12.07;100.00;101362.53;5031205;28;20404;-70
2022/10/02 05:20:05;;;;;;;48.95;26.60;;;;;;;12.08;100.00;101361.66;5042651;28;20033;-70
2022/10/02 05:22:48;;;;;;;49.92;27.63;;;;;;;12.08;100.00;101374.03;5041791;28;20074;-70
2022/10/02 05:25:22;;;;;;;;;;;;;;;12.03;100.00;101372.22;5040921;28;20026;-69
2022/10/02 05:28:12;;;;;;;51.80;27.40;;;;;;;12.08;100.00;101374.91;5041169;28;20283;-69
2022/10/02 05:31:09;;;;;;;51.33;26.65;;;;;;;12.06;100.00;101381.97;5040914;28;20036;-69
2022/10/02 05:34:01;;;;;;;49.90;26.10;;;;;;;12.07;100.00;101378.41;5043143;28;20518;-69
2022/10/02 05:36:38;;;;;;;53.35;25.70;;;;;;;12.07;100.00;101393.44;5042270;28;20392;-68
2022/10/02 05:39:10;;;;;;;50.05;24.75;;;;;;;12.09;100.00;101392.59;5041029;28;20079;-70
2022/10/02 05:41:48;;;;;;;50.40;24.85;;;;;;;12.09;100.00;101386.41;5043253;28;20107;-69
2022/10/02 05:44:19;;;;;;;48.60;24.27;;;;;;;12.10;100.00;101386.41;5040377;28;20104;-71
2022/10/02 05:46:52;;;;;;;49.78;23.25;;;;;;;12.12;100.00;101392.59;5042785;28;20033;-67
2022/10/02 05:49:23;;;;;;;47.42;21.02;;;;;;;12.16;100.00;101390.88;5046813;28;20024;-68
2022/10/02 05:51:58;;;;;;;48.47;21.35;;;;;;;12.14;100.00;101390.84;5044387;28;20060;-68
2022/10/02 05:55:11;;;;;;;48.10;20.40;;;;;;;12.14;100.00;101388.19;5046086;28;20056;-69
2022/10/02 05:57:45;;;;;;;49.72;17.98;;;;;;;12.17;100.00;101393.53;5021907;28;20115;-68
2022/10/02 06:00:45;;;;;;;43.80;16.05;;;;;;;12.19;100.00;101398.84;5024993;28;20068;-67
2022/10/02 06:03:13;;;;;;;44.10;15.90;;;;;;;12.18;100.00;101397.94;5025158;28;20037;-66
2022/10/02 06:05:42;;;;;;;41.60;15.45;;;;;;;12.17;100.00;101392.63;5021638;28;20045;-68
2022/10/02 06:08:13;;;;;;;41.25;14.68;;;;;;;12.16;100.00;101401.47;5024549;28;20117;-69
2022/10/02 06:10:50;;;;;;;41.97;14.40;;;;;;;12.16;100.00;101399.69;5021822;28;20037;-67
2022/10/02 06:13:24;;;;;;;36.67;12.50;;;;;;;12.17;100.00;101404.13;5024777;28;20041;-68
2022/10/02 06:15:54;;;;;;;39.92;12.38;;;;;;;12.22;100.00;101409.47;5022143;28;20026;-67
2022/10/02 06:18:27;;;;;;;41.22;13.10;;;;;;;12.24;100.00;101412.13;5023870;28;20037;-67
2022/10/02 06:21:01;;;;;;;39.10;12.07;;;;;;;12.24;100.00;101420.94;5022158;28;20108;-69
2022/10/02 06:23:34;;;;;;;35.63;11.02;;;;;;;12.27;100.00;101422.75;5024147;28;20021;-69
2022/10/02 06:26:13;;;;;;;41.72;11.25;;;;;;;12.28;100.00;101424.53;5023370;28;20516;-69
2022/10/02 06:28:43;;;;;;;39.75;10.77;;;;;;;12.30;100.00;101428.94;5021334;28;20026;-69
2022/10/02 06:31:20;;;;;;;37.60;11.40;;;;;;;12.32;100.00;101434.25;5031350;28;20091;-70
2022/10/02 06:33:46;;;;;;;36.95;10.70;;;;;;;12.31;100.00;101428.06;5043104;28;20456;-70
2022/10/02 06:36:36;;;;;;;37.72;10.93;;;;;;;12.32;100.00;101429.84;5046636;28;20040;-70
2022/10/02 06:39:12;;;;;;;34.47;11.02;;;;;;;12.36;100.00;101436.94;5045144;28;20080;-70
2022/10/02 06:41:46;;;;;;;35.70;10.38;;;;;;;12.39;100.00;101438.72;5043187;28;20029;-70
2022/10/02 06:44:30;;;;;;;37.10;10.57;;;;;;;12.41;100.00;101442.28;5042765;28;20029;-70
2022/10/02 06:47:34;;;;;;;35.78;11.52;;;;;;;12.45;100.00;101453.78;5044454;28;20053;-70
2022/10/02 06:50:38;;;;;;;39.42;11.60;;;;;;;12.45;100.00;101454.69;5022222;28;20523;-70
2022/10/02 06:53:09;;;;;;;38.13;11.45;;;;;;;12.46;100.00;101467.03;4982222;28;20041;-70
2022/10/02 06:56:13;;;;;;;35.50;11.70;;;;;;;12.46;100.00;101461.72;4984214;28;20086;-71
2022/10/02 06:59:10;;;;;;;35.38;11.32;;;;;;;12.47;100.00;101468.81;4984362;28;20050;-70
2022/10/02 07:01:41;;;;;;;38.72;11.82;;;;;;;12.49;100.00;101475.00;4906897;29;20044;-70
2022/10/02 07:04:35;;;;;;;36.40;12.63;;;;;;;12.49;100.00;101474.13;4905026;29;20028;-70
2022/10/02 07:07:32;;;;;;;38.72;12.82;;;;;;;12.51;100.00;101477.69;4903452;29;20044;-71
2022/10/02 07:10:10;;;;;;;38.05;14.10;;;;;;;12.54;100.00;101483.91;4854318;29;20049;-70
2022/10/02 07:13:19;;;;;;;35.85;14.40;;;;;;;12.55;100.00;101480.38;4849425;29;20061;-70
2022/10/02 07:16:08;;;;;;;38.92;15.27;;;;;;;12.58;100.00;101478.59;4850103;29;20669;-70
2022/10/02 07:18:49;;;;;;;39.05;16.40;;;;;;;12.60;100.00;101477.75;4858385;29;20053;-69
2022/10/02 07:21:49;;;;;;;41.80;17.80;;;;;;;12.56;100.00;101468.00;4858631;29;20093;-70
2022/10/02 07:24:25;;;;;;;39.85;17.92;;;;;;;12.55;100.00;101480.38;4853767;29;20133;-70
2022/10/02 07:27:11;;;;;;;39.80;16.58;;;;;;;12.60;100.00;101490.13;4845510;29;20405;-71
2022/10/02 07:30:03;;;;;;;37.88;19.02;;;;;;;12.56;100.00;101481.25;4853883;29;20033;-71
2022/10/02 07:32:50;;;;;;;40.53;20.00;;;;;;;12.55;100.00;101477.72;4892751;29;20040;-67
2022/10/02 07:35:21;;;;;;;38.63;21.15;;;;;;;12.54;100.00;101483.91;4895761;29;20195;-66
2022/10/02 07:38:21;;;;;;;42.45;21.02;;;;;;;12.55;100.00;101488.34;4916441;28;20050;-66
2022/10/02 07:41:25;;;;;;;41.13;22.05;;;;;;;12.61;100.00;101490.13;4968451;28;20046;-65
2022/10/02 07:43:59;;;;;;;38.95;22.17;;;;;;;12.63;100.00;101490.16;4933443;29;20074;-65
2022/10/02 07:46:31;;;;;;;40.97;21.08;;;;;;;12.67;100.00;101491.94;4953105;28;20554;-65
2022/10/02 07:49:15;;;;;;;41.33;21.27;;;;;;;12.69;100.00;101496.34;5022166;28;20141;-65
2022/10/02 07:51:46;;;;;;;38.20;20.05;;;;;;;12.72;100.00;101495.50;5022252;28;20489;-69
2022/10/02 07:54:11;;;;;;;37.75;19.77;;;;;;;12.78;100.00;101494.66;5028440;28;20042;-69
2022/10/02 07:56:37;;;;;;;36.88;19.17;;;;;;;12.82;100.00;101491.13;5026307;28;20025;-69
2022/10/02 07:59:09;;;;;;;37.60;18.33;;;;;;;12.88;100.00;101497.34;5026158;28;20528;-68
2022/10/02 08:01:40;;;;;;;36.17;17.48;;;;;;;12.99;100.00;101493.84;5022992;28;20045;-67
2022/10/02 08:04:28;;;;;;;34.53;16.38;;;;;;;13.00;100.00;101507.13;5019383;28;20029;-68
2022/10/02 08:06:59;;;;;;;33.05;15.82;;;;;;;13.00;100.00;101511.56;5011675;28;20050;-69
2022/10/02 08:09:32;;;;;;;34.63;16.35;;;;;;;13.07;100.00;101508.06;5022335;28;20026;-68
2022/10/02 08:12:06;;;;;;;33.53;15.23;;;;;;;13.06;100.00;101512.50;5020277;28;20036;-69
2022/10/02 08:14:44;;;;;;;33.05;15.85;;;;;;;13.20;100.00;101517.84;5022188;28;20607;-68
2022/10/02 08:17:22;;;;;;;30.02;14.95;;;;;;;13.32;100.00;101524.09;5019313;28;20543;-69
2022/10/02 08:19:50;;;;;;;32.10;14.82;;;;;;;13.39;100.00;101529.44;5025971;28;20087;-69
2022/10/02 08:22:28;;;;;;;31.00;14.50;;;;;;;13.46;100.00;101530.38;5043630;28;20033;-68
2022/10/02 08:25:01;;;;;;;31.10;14.77;;;;;;;13.49;100.00;101537.47;5042767;28;20052;-69
2022/10/02 08:27:52;;;;;;;30.60;14.77;;;;;;;13.55;100.00;101543.66;5042149;28;20028;-69
2022/10/02 08:30:17;;;;;;;30.05;14.00;;;;;;;13.62;100.00;101547.25;5018897;28;20059;-70
2022/10/02 08:32:43;;;;;;;28.00;13.88;;;;;;;13.54;100.00;101541.91;5019581;28;20548;-69
2022/10/02 08:35:14;;;;;;;27.98;13.77;;;;;;;13.55;100.00;101537.47;5022256;28;20488;-68
2022/10/02 08:37:48;;;;;;;29.95;14.52;;;;;;;13.61;100.00;101548.13;5022609;28;20460;-68
2022/10/02 08:40:43;;;;;;;31.05;14.27;;;;;;;13.64;100.00;101553.44;5022057;28;20060;-70
2022/10/02 08:43:37;;;;;;;29.58;14.48;;;;;;;13.73;100.00;101557.88;5018893;28;20046;-70
2022/10/02 08:46:30;;;;;;;30.30;14.18;;;;;;;13.78;100.00;101565.00;5022045;28;20039;-69
2022/10/02 08:49:24;;;;;;;30.17;14.43;;;;;;;13.88;100.00;101565.91;5020911;28;20547;-69
2022/10/02 08:51:58;;;;;;;30.52;14.35;;;;;;;14.03;100.00;101557.06;5022280;28;20037;-69
2022/10/02 08:55:03;;;;;;;29.77;13.20;;;;;;;14.13;100.00;101569.47;5020102;28;20056;-69
2022/10/02 08:58:09;;;;;;;27.52;11.70;;;;;;;14.14;100.00;101567.72;5012952;28;20026;-69
2022/10/02 09:00:54;;;;;;;29.40;12.43;;;;;;;14.11;100.00;101568.59;5021753;28;20045;-69
2022/10/02 09:03:57;;;;;;;25.25;11.68;;;;;;;14.17;100.00;101570.38;5021933;28;20053;-69
2022/10/02 09:06:32;;;;;;;26.67;11.00;;;;;;;14.18;100.00;101568.59;5022340;28;20042;-69
2022/10/02 09:08:57;;;;;;;27.00;10.88;;;;;;;14.22;100.00;101581.91;5042672;28;20112;-68
2022/10/02 09:11:37;;;;;;;25.92;11.32;;;;;;;14.23;100.00;101583.69;5042529;28;20563;-68
2022/10/02 09:14:33;;;;;;;24.50;9.38;;;;;;;14.38;100.00;101581.91;5043802;28;20021;-65
2022/10/02 09:17:31;;;;;;;24.92;7.70;;;;;;;14.47;100.00;101579.25;5042798;28;20029;-65
2022/10/02 09:20:18;;;;;;;23.95;7.13;;;;;;;14.65;100.00;101583.72;5042677;28;20116;-67
2022/10/02 09:23:20;;;;;;;23.23;7.57;;;;;;;14.80;100.00;101588.16;5044898;28;20037;-68
2022/10/02 09:26:02;;;;;;;23.20;6.93;;;;;;;15.09;100.00;101581.88;5045004;28;20017;-68
2022/10/02 09:28:56;;;;;;;23.23;7.60;;;;;;;15.52;100.00;101585.28;5045454;28;20029;-66
2022/10/02 09:31:46;;;;;;;22.40;7.30;;;;;;;15.59;100.00;101583.44;5045766;28;20043;-68
2022/10/02 09:34:46;;;;;;;23.88;6.90;;;;;;;15.38;100.00;101583.53;5045167;28;20446;-69
2022/10/02 09:37:36;;;;;;;22.95;6.72;;;;;;;15.26;100.00;101580.06;5045357;28;20498;-68
2022/10/02 09:40:17;;;;;;;22.92;6.88;;;;;;;15.42;100.00;101588.88;5043502;28;20073;-67
2022/10/02 09:42:57;;;;;;;22.95;6.78;;;;;;;15.48;100.00;101602.16;5045309;28;20408;-68
2022/10/02 09:45:32;;;;;;;23.60;6.60;;;;;;;15.67;100.00;101604.75;5046750;28;20108;-67
2022/10/02 09:48:15;;;;;;;22.27;6.50;;;;;;;16.10;100.00;101598.31;5043820;28;20033;-67
2022/10/02 09:51:05;;;;;;;22.08;6.47;;;;;;;16.26;100.00;101591.09;5045346;28;20033;-69
2022/10/02 09:53:48;;;;;;;23.63;6.43;;;;;;;16.37;100.00;101598.13;5043989;28;20117;-66
2022/10/02 09:56:20;;;;;;;22.23;6.15;;;;;;;16.49;100.00;101606.94;5045431;28;20491;-68
2022/10/02 09:58:56;;;;;;;24.63;6.60;;;;;;;16.36;100.00;101604.34;5045467;28;20039;-69
2022/10/02 10:01:37;;;;;;;23.08;6.55;;;;;;;16.51;100.00;101611.34;5046404;28;20035;-67
2022/10/02 10:04:30;;;;;;;20.83;6.03;;;;;;;17.05;100.00;101618.00;5043968;28;20116;-66
2022/10/02 10:07:32;;;;;;;24.50;6.70;;;;;;;18.02;100.00;101605.28;5045145;28;20506;-70
2022/10/02 10:10:13;;;;;;;23.38;6.70;;;;;;;18.09;100.00;101610.50;5044101;28;20116;-74
2022/10/02 10:13:11;;;;;;;22.08;5.88;;;;;;;18.01;100.00;101611.50;5045146;28;20032;-69
2022/10/02 10:16:12;;;;;;;23.10;6.40;;;;;;;17.91;100.00;101606.31;5044874;28;20029;-71
2022/10/02 10:19:06;;;;;;;22.95;5.45;;;;;;;18.04;100.00;101615.03;5046012;28;20456;-66
2022/10/02 10:21:46;;;;;;;21.98;5.38;;;;;;;18.73;100.00;101623.75;5044323;28;20059;-67
2022/10/02 10:24:49;;;;;;;21.45;5.47;;;;;;;18.57;100.00;101622.25;5044643;28;20032;-68
2022/10/02 10:27:34;;;;;;;21.60;5.50;;;;;;;18.37;100.00;101627.94;5045948;28;20469;-65
2022/10/02 10:30:07;;;;;;;21.17;5.00;;;;;;;17.68;100.00;101641.34;5044067;28;20079;-67
2022/10/02 10:32:50;;;;;;;21.25;4.88;;;;;;;17.73;100.00;101644.81;5045411;28;20025;-69
2022/10/02 10:35:24;;;;;;;20.73;4.32;;;;;;;18.50;100.00;101650.03;5046104;28;20474;-67
2022/10/02 10:40:59;;;;;;;22.88;4.60;;;;;;;18.09;100.00;101663.13;5043856;28;20124;-70
2022/10/02 10:43:42;;;;;;;20.70;4.30;;;;;;;17.66;100.00;101669.00;5042788;28;20116;-69
2022/10/02 10:46:25;;;;;;;;;;;;;;;17.60;100.00;101660.16;5044800;28;20472;-66
2022/10/02 10:49:24;;;;;;;20.08;4.50;;;;;;;17.76;100.00;101670.66;5042747;28;19913;-67
2022/10/02 10:52:10;;;;;;;20.80;4.22;;;;;;;17.52;100.00;101662.03;5045980;28;20040;-70
2022/10/02 10:54:51;;;;;;;22.08;4.47;;;;;;;17.31;100.00;101664.94;5044356;28;20033;-66
2022/10/02 10:57:44;;;;;;;20.67;4.45;;;;;;;17.15;100.00;101664.22;5043366;28;20491;-68
2022/10/02 11:00:21;;;;;;;21.42;4.85;;;;;;;17.36;100.00;101661.31;5044512;28;20057;-67
2022/10/02 11:02:58;;;;;;;22.55;4.82;;;;;;;17.52;100.00;101658.47;5043524;28;20041;-67
2022/10/02 11:05:35;;;;;;;22.67;4.90;;;;;;;17.59;100.00;101660.16;5042355;28;20057;-70
2022/10/02 11:08:33;;;;;;;21.58;4.70;;;;;;;17.43;100.00;101664.81;5042936;28;20044;-70
2022/10/02 11:11:09;;;;;;;21.45;4.80;;;;;;;17.33;100.00;101649.75;5042913;28;20030;-69
2022/10/02 11:14:05;;;;;;;22.83;4.80;;;;;;;17.55;100.00;101658.44;5044682;28;20078;-69
2022/10/02 11:16:36;;;;;;;20.63;4.85;;;;;;;17.85;100.00;101656.28;5042977;28;20049;-67
2022/10/02 11:19:15;;;;;;;20.75;4.50;;;;;;;18.18;100.00;101662.97;5044824;28;20115;-69
2022/10/02 11:21:47;;;;;;;21.95;4.82;;;;;;;18.72;100.00;101651.44;5044371;28;20029;-67
2022/10/02 11:24:18;;;;;;;;;;;;;;;19.31;100.00;101670.06;5043595;28;20029;-69
2022/10/02 11:26:59;;;;;;;19.55;4.40;;;;;;;19.32;100.00;101670.94;5044897;28;19920;-66
2022/10/02 11:29:33;;;;;;;20.67;4.50;;;;;;;18.76;100.00;101674.59;5041951;28;20468;-71
2022/10/02 11:32:32;;;;;;;22.20;4.78;;;;;;;18.74;100.00;101676.41;5042205;28;20025;-69
2022/10/02 11:35:34;;;;;;;20.60;4.57;;;;;;;18.63;100.00;101675.69;5042684;28;20067;-64
2022/10/02 11:38:44;;;;;;;20.77;4.53;;;;;;;18.21;100.00;101683.47;5024422;28;20148;-69
2022/10/02 11:41:58;;;;;;;21.60;4.63;;;;;;;18.16;100.00;101685.31;5042437;28;20115;-66
2022/10/02 11:45:02;;;;;;;22.45;4.63;;;;;;;17.77;100.00;101689.34;5043451;28;20041;-65
2022/10/02 11:47:45;;;;;;;20.35;4.32;;;;;;;17.71;100.00;101692.09;5044986;28;20040;-65
2022/10/02 11:50:17;;;;;;;19.85;4.32;;;;;;;17.74;100.00;101686.72;5042427;28;20444;-65
2022/10/02 11:52:51;;;;;;;21.15;5.10;;;;;;;17.77;100.00;101692.03;5043599;28;20033;-65
2022/10/02 11:55:25;;;;;;;22.02;4.93;;;;;;;17.60;100.00;101691.34;5043647;28;20029;-68
2022/10/02 11:57:59;;;;;;;21.48;4.97;;;;;;;17.45;100.00;101684.38;5042852;28;20032;-66
2022/10/02 12:00:58;;;;;;;21.10;4.72;;;;;;;17.59;100.00;101677.09;5043998;28;20033;-69
2022/10/02 12:03:47;;;;;;;23.50;5.22;;;;;;;17.55;100.00;101682.50;5043987;28;20039;-66
2022/10/02 12:06:34;;;;;;;21.13;5.50;;;;;;;17.38;100.00;101688.88;5044527;28;20534;-68
2022/10/02 12:09:10;;;;;;;21.17;5.53;;;;;;;17.11;100.00;101690.06;5044732;28;20024;-66